createdAt,value
2018-04-26T00:00:55.203Z,1.43
2018-04-26T00:03:23.503Z,1.00
2018-04-26T00:05:51.946Z,1.37
2018-04-26T00:08:20.322Z,1.13
2018-04-26T00:10:48.634Z,1.13
2018-04-26T00:13:17.018Z,1.30
2018-04-26T00:15:45.357Z,2.00
2018-04-26T00:18:14.074Z,1.93
2018-04-26T00:20:43.437Z,1.60
2018-04-26T00:23:11.783Z,1.30
2018-04-26T00:25:40.437Z,1.30
2018-04-26T00:28:08.716Z,1.20
2018-04-26T00:30:36.965Z,1.67
2018-04-26T00:33:05.360Z,1.20
2018-04-26T00:35:33.721Z,1.27
2018-04-26T00:38:02.057Z,1.10
2018-04-26T00:40:31.186Z,1.27
2018-04-26T00:42:59.499Z,1.17
2018-04-26T00:45:27.785Z,1.07
2018-04-26T00:47:56.232Z,1.23
2018-04-26T00:50:24.555Z,1.20
2018-04-26T00:52:52.913Z,1.40
2018-04-26T00:55:21.305Z,1.30
2018-04-26T00:57:49.584Z,1.30
2018-04-26T01:00:17.834Z,1.37
2018-04-26T01:02:46.181Z,1.27
2018-04-26T01:05:14.609Z,1.10
2018-04-26T01:07:42.876Z,1.10
2018-04-26T01:10:11.275Z,1.20
2018-04-26T01:12:39.519Z,1.27
2018-04-26T01:15:08.023Z,1.10
2018-04-26T01:17:36.457Z,1.13
2018-04-26T01:20:04.862Z,1.20
2018-04-26T01:22:33.826Z,0.87
2018-04-26T01:25:02.206Z,1.30
2018-04-26T01:27:30.511Z,1.00
2018-04-26T01:29:58.753Z,1.30
2018-04-26T01:32:27.071Z,1.43
2018-04-26T01:34:55.441Z,0.90
2018-04-26T01:37:35.430Z,1.23
2018-04-26T01:40:04.476Z,1.37
2018-04-26T01:42:32.881Z,1.43
2018-04-26T01:45:01.138Z,1.40
2018-04-26T01:47:29.398Z,0.97
2018-04-26T01:49:57.726Z,0.80
2018-04-26T01:52:26.054Z,1.30
2018-04-26T01:54:54.373Z,1.27
2018-04-26T01:57:22.836Z,1.27
2018-04-26T01:59:51.134Z,1.20
2018-04-26T02:02:19.564Z,1.20
2018-04-26T02:04:47.821Z,1.30
2018-04-26T02:07:16.083Z,1.10
2018-04-26T02:09:44.432Z,1.13
2018-04-26T02:12:12.790Z,1.23
2018-04-26T02:14:41.205Z,1.30
2018-04-26T02:17:09.549Z,1.30
2018-04-26T02:19:38.183Z,1.20
2018-04-26T02:22:07.219Z,1.20
2018-04-26T02:24:35.477Z,1.03
2018-04-26T02:27:03.978Z,2.47
2018-04-26T02:29:32.347Z,1.53
2018-04-26T02:32:00.755Z,1.43
2018-04-26T02:34:29.426Z,1.70
2018-04-26T02:36:57.822Z,1.70
2018-04-26T02:39:26.134Z,1.93
2018-04-26T02:41:54.588Z,2.00
2018-04-26T02:44:22.949Z,2.57
2018-04-26T02:46:51.468Z,2.77
2018-04-26T02:49:20.002Z,2.43
2018-04-26T02:51:49.066Z,2.40
2018-04-26T02:54:17.333Z,2.17
2018-04-26T02:56:45.779Z,2.40
2018-04-26T02:59:14.038Z,2.17
2018-04-26T03:01:42.529Z,2.70
2018-04-26T03:04:10.834Z,2.30
2018-04-26T03:06:39.296Z,1.60
2018-04-26T03:09:07.558Z,1.90
2018-04-26T03:11:36.027Z,1.93
2018-04-26T03:14:04.645Z,1.70
2018-04-26T03:16:33.102Z,2.53
2018-04-26T03:19:01.382Z,2.10
2018-04-26T03:21:29.641Z,2.40
2018-04-26T03:23:57.930Z,2.00
2018-04-26T03:26:26.298Z,2.00
2018-04-26T03:28:54.990Z,2.10
2018-04-26T03:31:23.243Z,2.00
2018-04-26T03:33:51.510Z,2.03
2018-04-26T03:36:19.838Z,1.83
2018-04-26T03:38:48.108Z,2.30
2018-04-26T03:41:16.590Z,1.70
2018-04-26T03:43:44.917Z,1.70
2018-04-26T03:46:13.375Z,1.97
2018-04-26T03:48:41.717Z,2.10
2018-04-26T03:51:10.032Z,2.10
2018-04-26T03:53:38.294Z,1.87
2018-04-26T03:56:06.810Z,1.70
2018-04-26T03:58:35.838Z,1.60
2018-04-26T04:01:15.954Z,1.97
2018-04-26T04:03:55.933Z,2.77
2018-04-26T04:06:25.102Z,2.13
2018-04-26T04:08:53.574Z,2.00
2018-04-26T04:11:22.264Z,1.80
2018-04-26T04:13:50.567Z,2.07
2018-04-26T04:16:18.830Z,1.90
2018-04-26T04:18:47.136Z,2.00
2018-04-26T04:21:15.540Z,1.90
2018-04-26T04:23:43.798Z,3.07
2018-04-26T04:26:12.301Z,1.67
2018-04-26T04:28:40.604Z,2.67
2018-04-26T04:31:09.346Z,2.00
2018-04-26T04:33:37.623Z,1.70
2018-04-26T04:36:06.823Z,1.93
2018-04-26T04:38:35.406Z,1.70
2018-04-26T04:41:03.790Z,1.63
2018-04-26T04:43:32.165Z,1.87
2018-04-26T04:46:00.443Z,2.37
2018-04-26T04:48:28.883Z,1.93
2018-04-26T04:50:57.939Z,1.60
2018-04-26T04:53:26.305Z,2.03
2018-04-26T04:55:54.570Z,1.67
2018-04-26T04:58:22.846Z,1.53
2018-04-26T05:00:51.143Z,1.77
2018-04-26T05:03:19.496Z,1.90
2018-04-26T05:05:47.902Z,1.93
2018-04-26T05:08:16.219Z,1.90
2018-04-26T05:10:44.894Z,2.23
2018-04-26T05:13:13.348Z,1.50
2018-04-26T05:15:41.665Z,2.80
2018-04-26T05:18:10.720Z,4.73
2018-04-26T05:20:39.030Z,1.87
2018-04-26T05:23:08.064Z,2.40
2018-04-26T05:25:36.412Z,2.87
2018-04-26T05:28:04.790Z,1.43
2018-04-26T05:30:33.264Z,7.80
2018-04-26T05:33:01.594Z,13.77
2018-04-26T05:35:29.951Z,20.23
2018-04-26T05:37:58.281Z,18.97
2018-04-26T05:40:26.770Z,35.70
2018-04-26T05:42:55.142Z,34.53
2018-04-26T05:45:23.743Z,43.13
2018-04-26T05:47:52.157Z,45.43
2018-04-26T05:50:20.418Z,63.57
2018-04-26T05:52:48.688Z,56.00
2018-04-26T05:55:17.012Z,52.53
2018-04-26T05:57:45.432Z,48.47
2018-04-26T06:00:13.791Z,54.13
2018-04-26T06:02:42.077Z,56.10
2018-04-26T06:05:10.485Z,63.27
2018-04-26T06:07:38.852Z,54.33
2018-04-26T06:10:07.303Z,64.40
2018-04-26T06:12:35.724Z,51.93
2018-04-26T06:15:04.051Z,57.30
2018-04-26T06:17:32.344Z,55.37
2018-04-26T06:20:00.760Z,71.97
2018-04-26T06:22:29.820Z,74.27
2018-04-26T06:24:59.067Z,79.43
2018-04-26T06:27:28.096Z,95.27
2018-04-26T06:29:56.400Z,61.27
2018-04-26T06:32:24.883Z,58.70
2018-04-26T06:34:53.959Z,79.70
2018-04-26T06:37:22.213Z,72.40
2018-04-26T06:39:50.624Z,67.37
2018-04-26T06:42:18.912Z,62.87
2018-04-26T06:44:47.361Z,70.60
2018-04-26T06:47:15.647Z,60.53
2018-04-26T06:49:44.054Z,54.37
2018-04-26T06:52:13.434Z,49.93
2018-04-26T06:54:41.776Z,38.43
2018-04-26T06:57:10.168Z,40.20
2018-04-26T06:59:38.790Z,49.87
2018-04-26T07:02:07.173Z,43.33
2018-04-26T07:04:36.226Z,40.80
2018-04-26T07:07:04.573Z,39.23
2018-04-26T07:09:32.851Z,36.60
2018-04-26T07:12:01.191Z,34.50
2018-04-26T07:14:29.453Z,35.80
2018-04-26T07:16:57.721Z,32.70
2018-04-26T07:19:26.015Z,36.30
2018-04-26T07:21:54.561Z,31.47
2018-04-26T07:24:22.960Z,29.40
2018-04-26T07:26:51.342Z,33.83
2018-04-26T07:29:19.633Z,29.80
2018-04-26T07:31:47.926Z,28.07
2018-04-26T07:34:16.173Z,28.03
2018-04-26T07:36:44.449Z,26.23
2018-04-26T07:39:12.909Z,31.23
2018-04-26T07:41:41.314Z,28.67
2018-04-26T07:44:09.591Z,32.33
2018-04-26T07:46:37.871Z,27.03
2018-04-26T07:49:06.151Z,31.87
2018-04-26T07:51:35.736Z,29.27
2018-04-26T07:54:04.137Z,22.97
2018-04-26T07:56:32.418Z,18.43
2018-04-26T07:59:01.913Z,19.10
2018-04-26T08:01:31.129Z,25.30
2018-04-26T08:03:59.412Z,27.70
2018-04-26T08:06:27.679Z,19.73
2018-04-26T08:08:55.955Z,19.93
2018-04-26T08:11:24.293Z,17.83
2018-04-26T08:13:52.713Z,21.20
2018-04-26T08:16:20.991Z,14.97
2018-04-26T08:18:49.262Z,11.33
2018-04-26T08:21:17.753Z,9.93
2018-04-26T08:23:46.207Z,15.87
2018-04-26T08:26:14.518Z,17.93
2018-04-26T08:28:42.921Z,19.20
2018-04-26T08:31:11.345Z,20.83
2018-04-26T08:33:39.677Z,14.50
2018-04-26T08:36:08.721Z,12.53
2018-04-26T08:38:36.990Z,13.30
2018-04-26T08:41:05.486Z,14.87
2018-04-26T08:43:33.797Z,15.83
2018-04-26T08:46:02.359Z,13.77
2018-04-26T08:48:30.773Z,13.90
2018-04-26T08:50:59.074Z,19.00
2018-04-26T08:53:27.487Z,12.63
2018-04-26T08:55:55.750Z,12.50
2018-04-26T08:58:24.370Z,10.77
2018-04-26T09:00:52.836Z,11.40
2018-04-26T09:03:21.153Z,10.73
2018-04-26T09:05:50.192Z,11.37
2018-04-26T09:08:18.806Z,13.07
2018-04-26T09:10:47.835Z,9.60
2018-04-26T09:13:16.183Z,10.63
2018-04-26T09:15:44.886Z,10.63
2018-04-26T09:18:13.127Z,11.00
2018-04-26T09:20:41.400Z,12.67
2018-04-26T09:23:09.758Z,13.60
2018-04-26T09:25:38.163Z,9.47
2018-04-26T09:28:06.814Z,10.53
2018-04-26T09:30:35.074Z,12.73
2018-04-26T09:33:03.514Z,13.60
2018-04-26T09:35:31.795Z,10.23
2018-04-26T09:38:00.326Z,8.03
2018-04-26T09:40:28.650Z,9.33
2018-04-26T09:42:57.034Z,7.60
2018-04-26T09:45:25.465Z,8.27
2018-04-26T09:47:53.805Z,6.77
2018-04-26T09:50:23.151Z,7.10
2018-04-26T09:52:51.461Z,22.20
2018-04-26T09:55:19.840Z,7.50
2018-04-26T09:57:48.547Z,6.63
2018-04-26T10:00:22.377Z,7.70
2018-04-26T10:02:50.646Z,8.33
2018-04-26T10:05:18.949Z,8.37
2018-04-26T10:07:47.349Z,9.50
2018-04-26T10:10:15.626Z,5.47
2018-04-26T10:12:44.095Z,5.67
2018-04-26T10:15:12.559Z,4.63
2018-04-26T10:17:40.804Z,10.50
2018-04-26T10:20:09.537Z,5.83
2018-04-26T10:22:37.793Z,7.30
2018-04-26T10:25:06.233Z,8.90
2018-04-26T10:27:34.523Z,5.53
2018-04-26T10:30:02.864Z,4.80
2018-04-26T10:32:31.813Z,6.57
2018-04-26T10:35:00.098Z,4.93
2018-04-26T10:37:28.366Z,4.87
2018-04-26T10:39:56.647Z,5.23
2018-04-26T10:42:24.929Z,5.83
2018-04-26T10:44:53.325Z,5.50
2018-04-26T10:47:21.945Z,4.23
2018-04-26T10:49:50.382Z,4.93
2018-04-26T10:52:18.772Z,6.60
2018-04-26T10:54:47.163Z,4.53
2018-04-26T10:57:15.487Z,5.10
2018-04-26T10:59:43.956Z,5.93
2018-04-26T11:02:12.235Z,5.47
2018-04-26T11:04:40.631Z,4.90
2018-04-26T11:07:09.722Z,4.83
2018-04-26T11:09:38.109Z,4.50
2018-04-26T11:12:06.443Z,4.30
2018-04-26T11:14:34.801Z,3.90
2018-04-26T11:17:03.076Z,4.90
2018-04-26T11:19:31.526Z,4.20
2018-04-26T11:21:59.958Z,3.10
2018-04-26T11:24:28.341Z,3.37
2018-04-26T11:26:56.660Z,3.70
2018-04-26T11:29:25.236Z,4.23
2018-04-26T11:31:53.465Z,5.00
2018-04-26T11:34:21.723Z,4.03
2018-04-26T11:36:50.004Z,5.43
2018-04-26T11:39:18.261Z,4.03
2018-04-26T11:41:46.598Z,4.27
2018-04-26T11:44:15.054Z,4.67
2018-04-26T11:46:43.525Z,4.60
2018-04-26T11:49:11.744Z,3.60
2018-04-26T11:51:40.849Z,3.57
2018-04-26T11:54:09.889Z,3.97
2018-04-26T11:56:38.478Z,4.43
2018-04-26T11:59:07.829Z,3.67
2018-04-26T12:01:36.159Z,3.30
2018-04-26T12:04:04.511Z,4.20
2018-04-26T12:06:32.946Z,3.43
2018-04-26T12:09:01.325Z,7.33
2018-04-26T12:11:29.690Z,7.63
2018-04-26T12:13:57.990Z,4.90
2018-04-26T12:16:26.433Z,3.93
2018-04-26T12:18:54.794Z,5.97
2018-04-26T12:21:23.208Z,5.77
2018-04-26T12:23:51.531Z,4.93
2018-04-26T12:26:19.794Z,3.90
2018-04-26T12:28:48.283Z,3.03
2018-04-26T12:31:17.334Z,3.03
2018-04-26T12:33:45.598Z,3.77
2018-04-26T12:36:14.070Z,2.77
2018-04-26T12:38:43.147Z,3.20
2018-04-26T12:41:11.458Z,2.87
2018-04-26T12:43:39.763Z,2.97
2018-04-26T12:46:08.051Z,2.53
2018-04-26T12:48:36.298Z,3.93
2018-04-26T12:51:04.580Z,4.50
2018-04-26T12:53:33.039Z,3.30
2018-04-26T12:56:01.302Z,3.97
2018-04-26T12:58:29.558Z,3.93
2018-04-26T13:00:57.854Z,3.50
2018-04-26T13:03:26.191Z,6.17
2018-04-26T13:05:54.923Z,2.23
2018-04-26T13:08:23.320Z,5.57
2018-04-26T13:10:51.598Z,4.20
2018-04-26T13:13:20.073Z,4.10
2018-04-26T13:15:48.333Z,2.83
2018-04-26T13:18:16.819Z,4.97
2018-04-26T13:20:45.086Z,5.53
2018-04-26T13:23:13.561Z,4.73
2018-04-26T13:25:41.968Z,2.83
2018-04-26T13:28:10.298Z,4.20
2018-04-26T13:30:38.729Z,5.73
2018-04-26T13:33:07.108Z,3.17
2018-04-26T13:35:35.786Z,3.90
2018-04-26T13:38:04.105Z,3.00
2018-04-26T13:40:32.538Z,3.27
2018-04-26T13:43:00.915Z,3.10
2018-04-26T13:45:29.334Z,4.30
2018-04-26T13:47:57.666Z,4.77
2018-04-26T13:50:26.002Z,2.87
2018-04-26T13:52:54.448Z,2.13
2018-04-26T13:55:23.139Z,3.37
2018-04-26T13:57:51.402Z,2.70
2018-04-26T14:00:19.898Z,4.83
2018-04-26T14:02:48.165Z,4.13
2018-04-26T14:05:16.574Z,3.10
2018-04-26T14:07:45.030Z,4.60
2018-04-26T14:10:13.338Z,2.13
2018-04-26T14:12:41.772Z,1.93
2018-04-26T14:15:10.087Z,2.50
2018-04-26T14:17:38.543Z,2.33
2018-04-26T14:20:06.815Z,2.13
2018-04-26T14:22:35.245Z,2.70
2018-04-26T14:25:03.674Z,3.20
2018-04-26T14:27:32.079Z,1.77
2018-04-26T14:30:00.379Z,2.10
2018-04-26T14:32:28.634Z,3.40
2018-04-26T14:34:56.907Z,3.10
2018-04-26T14:37:25.358Z,2.20
2018-04-26T14:39:53.639Z,1.37
2018-04-26T14:42:21.949Z,2.23
2018-04-26T14:44:50.225Z,0.90
2018-04-26T14:47:18.485Z,3.37
2018-04-26T14:49:46.856Z,2.07
2018-04-26T14:52:15.221Z,1.40
2018-04-26T14:54:43.603Z,1.93
2018-04-26T14:57:12.288Z,3.40
2018-04-26T14:59:40.557Z,3.80
2018-04-26T15:02:09.077Z,7.47
2018-04-26T15:04:37.415Z,8.63
2018-04-26T15:07:05.667Z,8.83
2018-04-26T15:09:34.023Z,9.57
2018-04-26T15:12:02.289Z,9.93
2018-04-26T15:14:30.546Z,9.33
2018-04-26T15:16:58.809Z,13.83
2018-04-26T15:19:27.090Z,10.67
2018-04-26T15:21:55.496Z,15.30
2018-04-26T15:24:23.842Z,16.67
2018-04-26T15:26:52.526Z,15.00
2018-04-26T15:29:21.236Z,10.83
2018-04-26T15:31:50.840Z,18.37
2018-04-26T15:34:19.103Z,17.07
2018-04-26T15:36:47.475Z,17.10
2018-04-26T15:39:16.561Z,24.73
2018-04-26T15:41:44.897Z,19.40
2018-04-26T15:44:13.953Z,26.17
2018-04-26T15:46:42.349Z,20.97
2018-04-26T15:49:10.621Z,17.07
2018-04-26T15:51:39.083Z,23.27
2018-04-26T15:54:19.273Z,15.43
2018-04-26T15:56:59.458Z,20.07
2018-04-26T15:59:40.208Z,24.17
2018-04-26T16:05:29.549Z,22.83
2018-04-26T16:08:15.403Z,15.57
2018-04-26T16:11:01.326Z,20.70
2018-04-26T16:13:47.117Z,26.60
2018-04-26T16:16:33.162Z,15.80
2018-04-26T16:19:19.001Z,14.77
2018-04-26T16:22:04.741Z,21.90
2018-04-26T16:24:50.637Z,18.47
2018-04-26T16:27:36.571Z,20.87
2018-04-26T16:30:16.738Z,14.00
2018-04-26T16:33:02.488Z,12.73
2018-04-26T16:35:42.747Z,19.17
2018-04-26T16:38:22.790Z,21.90
2018-04-26T16:40:51.898Z,15.37
2018-04-26T16:43:20.174Z,12.60
2018-04-26T16:45:48.431Z,19.97
2018-04-26T16:48:18.283Z,20.83
2018-04-26T16:50:46.560Z,23.43
2018-04-26T16:53:15.702Z,10.60
2018-04-26T16:55:43.966Z,10.00
2018-04-26T16:58:12.730Z,11.93
2018-04-26T17:00:41.951Z,16.57
2018-04-26T17:03:12.197Z,200.00
2018-04-26T17:05:41.262Z,1233.80
2018-04-26T17:08:10.283Z,1175.20
2018-04-26T17:10:39.960Z,1050.17
2018-04-26T17:13:08.255Z,962.93
2018-04-26T17:15:36.616Z,883.37
2018-04-26T17:18:04.973Z,818.10
2018-04-26T17:20:33.293Z,709.90
2018-04-26T17:23:02.358Z,691.20
2018-04-26T17:25:30.977Z,662.70
2018-04-26T17:28:00.096Z,641.93
2018-04-26T17:30:28.353Z,621.97
2018-04-26T17:32:57.411Z,552.57
2018-04-26T17:35:25.739Z,505.80
2018-04-26T17:37:54.194Z,465.13
2018-04-26T17:40:22.599Z,440.20
2018-04-26T17:42:50.958Z,430.00
2018-04-26T17:45:19.254Z,421.53
2018-04-26T17:47:48.295Z,403.17
2018-04-26T17:50:16.691Z,392.73
2018-04-26T17:52:45.413Z,370.20
2018-04-26T17:55:13.660Z,347.90
2018-04-26T17:57:41.950Z,312.83
2018-04-26T18:00:10.251Z,305.23
2018-04-26T18:02:38.529Z,312.83
2018-04-26T18:05:06.819Z,288.53
2018-04-26T18:07:35.314Z,281.10
2018-04-26T18:10:03.711Z,261.47
2018-04-26T18:12:32.334Z,252.03
2018-04-26T18:15:00.792Z,259.13
2018-04-26T18:17:29.104Z,259.80
2018-04-26T18:20:01.043Z,252.87
2018-04-26T18:22:25.837Z,255.93
2018-04-26T18:24:54.812Z,238.23
2018-04-26T18:27:23.646Z,220.70
2018-04-26T18:29:51.970Z,226.90
2018-04-26T18:32:20.397Z,220.23
2018-04-26T18:34:48.681Z,211.60
2018-04-26T18:37:17.761Z,199.13
2018-04-26T18:39:46.049Z,188.80
2018-04-26T18:42:15.090Z,180.27
2018-04-26T18:44:43.471Z,142.60
2018-04-26T18:47:11.789Z,98.37
2018-04-26T18:49:40.171Z,84.10
2018-04-26T18:52:09.254Z,72.00
2018-04-26T18:54:37.775Z,101.33
2018-04-26T18:57:06.044Z,125.00
2018-04-26T18:59:34.335Z,121.83
2018-04-26T19:02:02.736Z,121.73
2018-04-26T19:04:31.138Z,116.17
2018-04-26T19:06:59.419Z,125.20
2018-04-26T19:09:27.706Z,140.83
2018-04-26T19:11:55.982Z,141.23
2018-04-26T19:14:25.033Z,140.73
2018-04-26T19:16:53.322Z,140.67
2018-04-26T19:19:21.698Z,129.87
2018-04-26T19:21:49.982Z,131.13
2018-04-26T19:24:18.275Z,133.07
2018-04-26T19:26:46.853Z,126.53
2018-04-26T19:29:15.172Z,98.33
2018-04-26T19:31:44.200Z,60.73
2018-04-26T19:34:12.487Z,43.67
2018-04-26T19:36:40.993Z,44.33
2018-04-26T19:39:09.398Z,47.17
2018-04-26T19:41:37.731Z,49.57
2018-04-26T19:44:06.457Z,47.40
2018-04-26T19:46:34.880Z,45.27
2018-04-26T19:49:03.190Z,49.67
2018-04-26T19:51:31.466Z,54.23
2018-04-26T19:53:59.875Z,52.90
2018-04-26T19:56:28.327Z,57.33
2018-04-26T19:58:56.591Z,53.40
2018-04-26T20:01:24.865Z,46.23
2018-04-26T20:03:53.150Z,43.43
2018-04-26T20:06:21.452Z,46.37
2018-04-26T20:08:50.769Z,50.43
2018-04-26T20:11:19.203Z,46.43
2018-04-26T20:13:47.480Z,41.60
2018-04-26T20:16:16.561Z,44.90
2018-04-26T20:19:04.457Z,41.50
2018-04-26T20:21:33.237Z,44.27
2018-04-26T20:24:01.712Z,40.33
2018-04-26T20:26:30.010Z,43.83
2018-04-26T20:28:58.453Z,41.67
2018-04-26T20:31:27.514Z,36.07
2018-04-26T20:33:55.790Z,40.13
2018-04-26T20:36:24.187Z,39.70
2018-04-26T20:38:52.475Z,35.20
2018-04-26T20:41:20.958Z,35.00
2018-04-26T20:43:49.386Z,36.57
2018-04-26T20:46:17.648Z,34.47
2018-04-26T20:48:46.110Z,31.30
2018-04-26T20:51:14.456Z,30.63
2018-04-26T20:53:42.860Z,31.70
2018-04-26T20:56:11.922Z,33.80
2018-04-26T20:58:40.198Z,29.80
2018-04-26T21:01:08.625Z,28.90
2018-04-26T21:03:36.994Z,28.20
2018-04-26T21:06:05.350Z,32.17
2018-04-26T21:08:33.643Z,28.30
2018-04-26T21:11:01.962Z,29.80
2018-04-26T21:13:31.037Z,26.23
2018-04-26T21:16:00.083Z,25.70
2018-04-26T21:18:28.426Z,25.03
2018-04-26T21:20:56.872Z,25.77
2018-04-26T21:23:25.194Z,23.83
2018-04-26T21:25:53.494Z,22.40
2018-04-26T21:28:21.984Z,25.50
2018-04-26T21:30:50.408Z,20.80
2018-04-26T21:33:19.637Z,21.67
2018-04-26T21:35:48.089Z,24.83
2018-04-26T21:38:17.116Z,22.00
2018-04-26T21:40:45.437Z,21.43
2018-04-26T21:43:13.798Z,17.43
2018-04-26T21:45:42.081Z,19.03
2018-04-26T21:48:10.588Z,16.17
2018-04-26T21:50:45.450Z,19.60
2018-04-26T21:53:19.618Z,17.27
2018-04-26T21:55:53.434Z,15.03
2018-04-26T21:58:27.631Z,18.63
2018-04-26T22:01:01.576Z,17.07
2018-04-26T22:03:49.981Z,14.67
2018-04-26T22:06:18.464Z,13.53
2018-04-26T22:08:46.689Z,14.23
2018-04-26T22:11:15.143Z,13.87
2018-04-26T22:13:43.489Z,13.33
2018-04-26T22:16:11.913Z,16.07
2018-04-26T22:18:40.948Z,11.20
2018-04-26T22:21:09.246Z,10.90
2018-04-26T22:23:37.510Z,11.33
2018-04-26T22:26:05.782Z,11.67
2018-04-26T22:28:34.074Z,13.60
2018-04-26T22:31:02.478Z,10.37
2018-04-26T22:33:30.861Z,12.57
2018-04-26T22:35:59.168Z,11.83
2018-04-26T22:38:28.199Z,11.37
2018-04-26T22:40:56.489Z,9.87
2018-04-26T22:43:25.240Z,10.40
2018-04-26T22:45:54.290Z,11.37
2018-04-26T22:48:22.587Z,9.57
2018-04-26T22:50:51.048Z,8.13
2018-04-26T22:53:19.446Z,7.57
2018-04-26T22:55:47.793Z,8.63
2018-04-26T22:58:16.228Z,8.10
2018-04-26T23:00:44.486Z,5.80
2018-04-26T23:03:12.924Z,8.97
2018-04-26T23:05:42.937Z,7.37
2018-04-26T23:08:11.178Z,6.17
2018-04-26T23:10:40.214Z,6.57
2018-04-26T23:13:09.261Z,5.10
2018-04-26T23:15:37.535Z,7.00
2018-04-26T23:18:06.710Z,6.87
2018-04-26T23:20:35.258Z,6.97
2018-04-26T23:23:03.530Z,6.80
2018-04-26T23:25:32.012Z,6.50
2018-04-26T23:28:00.402Z,7.07
2018-04-26T23:30:29.089Z,7.03
2018-04-26T23:32:57.710Z,5.33
2018-04-26T23:35:26.150Z,6.83
2018-04-26T23:37:54.475Z,6.67
2018-04-26T23:40:22.902Z,6.00
2018-04-26T23:42:51.315Z,5.63
2018-04-26T23:45:19.679Z,4.70
2018-04-26T23:47:47.974Z,5.40
2018-04-26T23:50:16.423Z,6.03
2018-04-26T23:52:44.749Z,6.17
2018-04-26T23:55:13.799Z,5.33
2018-04-26T23:57:42.194Z,5.83
